createdAt,value
2017-10-09T00:01:03.429Z,3.90
2017-10-09T00:03:31.256Z,4.33
2017-10-09T00:05:59.903Z,3.40
2017-10-09T00:08:27.722Z,3.90
2017-10-09T00:10:56.335Z,3.67
2017-10-09T00:13:24.159Z,4.23
2017-10-09T00:15:52.808Z,3.10
2017-10-09T00:18:20.688Z,3.73
2017-10-09T00:20:48.563Z,3.97
2017-10-09T00:23:16.456Z,4.10
2017-10-09T00:25:44.401Z,3.83
2017-10-09T00:28:13.074Z,3.80
2017-10-09T00:30:40.987Z,3.40
2017-10-09T00:33:08.900Z,3.70
2017-10-09T00:35:36.797Z,3.10
2017-10-09T00:38:05.468Z,3.92
2017-10-09T00:40:33.400Z,4.20
2017-10-09T00:43:01.237Z,3.33
2017-10-09T00:45:29.062Z,4.10
2017-10-09T00:47:56.936Z,3.70
2017-10-09T00:50:24.813Z,3.50
2017-10-09T00:52:53.519Z,4.37
2017-10-09T00:55:21.443Z,4.17
2017-10-09T00:57:49.323Z,4.03
2017-10-09T01:00:17.371Z,3.80
2017-10-09T01:02:45.304Z,2.93
2017-10-09T01:05:13.264Z,4.57
2017-10-09T01:07:41.098Z,3.23
2017-10-09T01:10:08.936Z,4.00
2017-10-09T01:12:36.748Z,3.17
2017-10-09T01:15:05.373Z,3.90
2017-10-09T01:17:33.212Z,4.50
2017-10-09T01:20:01.162Z,4.43
2017-10-09T01:22:29.849Z,4.17
2017-10-09T01:24:58.830Z,3.13
2017-10-09T01:27:27.448Z,3.83
2017-10-09T01:29:55.296Z,4.03
2017-10-09T01:32:24.003Z,4.00
2017-10-09T01:34:51.888Z,5.40
2017-10-09T01:37:19.850Z,4.50
2017-10-09T01:39:47.766Z,3.93
2017-10-09T01:42:16.520Z,4.27
2017-10-09T01:44:44.352Z,3.90
2017-10-09T01:47:12.479Z,4.47
2017-10-09T01:49:40.312Z,3.40
2017-10-09T01:52:08.294Z,4.33
2017-10-09T01:54:36.147Z,4.23
2017-10-09T01:57:03.992Z,4.07
2017-10-09T01:59:31.808Z,4.30
2017-10-09T02:01:59.632Z,4.17
2017-10-09T02:04:28.305Z,4.73
2017-10-09T02:06:56.116Z,4.73
2017-10-09T02:09:23.938Z,4.03
2017-10-09T02:11:51.748Z,4.73
2017-10-09T02:14:19.577Z,3.33
2017-10-09T02:16:47.597Z,4.20
2017-10-09T02:19:15.545Z,3.83
2017-10-09T02:21:43.441Z,3.80
2017-10-09T02:24:12.099Z,4.70
2017-10-09T02:26:40.005Z,4.20
2017-10-09T02:29:08.752Z,4.47
2017-10-09T02:31:36.715Z,3.57
2017-10-09T02:34:04.608Z,5.10
2017-10-09T02:36:33.247Z,3.70
2017-10-09T02:39:01.082Z,3.67
2017-10-09T02:41:29.787Z,4.07
2017-10-09T02:43:57.711Z,4.80
2017-10-09T02:46:25.583Z,3.90
2017-10-09T02:48:53.477Z,3.70
2017-10-09T02:51:21.682Z,3.77
2017-10-09T02:53:49.591Z,3.20
2017-10-09T02:56:18.557Z,2.90
2017-10-09T02:58:46.691Z,3.20
2017-10-09T03:01:14.530Z,3.37
2017-10-09T03:03:43.105Z,3.67
2017-10-09T03:06:10.942Z,3.00
2017-10-09T03:08:38.752Z,3.50
2017-10-09T03:11:07.478Z,3.90
2017-10-09T03:13:35.317Z,3.23
2017-10-09T03:16:03.202Z,3.53
2017-10-09T03:18:31.047Z,3.53
2017-10-09T03:20:59.679Z,3.63
2017-10-09T03:23:38.424Z,3.30
2017-10-09T03:26:07.076Z,4.07
2017-10-09T03:28:49.791Z,3.63
2017-10-09T03:31:17.990Z,4.40
2017-10-09T03:33:45.788Z,3.07
2017-10-09T03:36:14.942Z,3.07
2017-10-09T03:38:42.852Z,3.90
2017-10-09T03:41:10.742Z,3.60
2017-10-09T03:43:38.737Z,3.80
2017-10-09T03:46:06.783Z,4.13
2017-10-09T03:48:34.615Z,3.33
2017-10-09T03:51:03.308Z,4.33
2017-10-09T03:53:31.934Z,4.07
2017-10-09T03:55:59.782Z,3.70
2017-10-09T03:58:28.496Z,3.50
2017-10-09T04:00:58.313Z,4.30
2017-10-09T04:03:27.064Z,3.63
2017-10-09T04:05:55.043Z,3.03
2017-10-09T04:08:22.878Z,3.03
2017-10-09T04:10:51.518Z,3.43
2017-10-09T04:13:19.328Z,3.47
2017-10-09T04:15:47.932Z,4.23
2017-10-09T04:18:15.775Z,3.33
2017-10-09T04:20:44.447Z,3.83
2017-10-09T04:23:13.065Z,3.50
2017-10-09T04:25:41.021Z,3.17
2017-10-09T04:28:08.908Z,3.53
2017-10-09T04:30:36.879Z,3.83
2017-10-09T04:33:04.749Z,3.93
2017-10-09T04:35:32.604Z,2.80
2017-10-09T04:38:00.530Z,3.50
2017-10-09T04:40:28.627Z,3.83
2017-10-09T04:42:56.563Z,3.00
2017-10-09T04:45:25.364Z,3.23
2017-10-09T04:47:53.224Z,3.10
2017-10-09T04:50:21.792Z,3.60
2017-10-09T04:52:49.779Z,3.20
2017-10-09T04:55:17.689Z,3.27
2017-10-09T04:57:45.568Z,4.00
2017-10-09T05:00:13.447Z,3.73
2017-10-09T05:02:41.397Z,3.70
2017-10-09T05:05:09.348Z,3.30
2017-10-09T05:07:37.228Z,2.83
2017-10-09T05:10:05.193Z,3.53
2017-10-09T05:12:33.052Z,3.27
2017-10-09T05:15:01.171Z,3.13
2017-10-09T05:17:29.103Z,3.80
2017-10-09T05:19:56.969Z,3.00
2017-10-09T05:22:24.868Z,3.70
2017-10-09T05:24:52.778Z,3.57
2017-10-09T05:27:20.625Z,3.30
2017-10-09T05:29:49.195Z,3.77
2017-10-09T05:32:16.996Z,3.73
2017-10-09T05:34:44.875Z,3.87
2017-10-09T05:37:13.344Z,3.43
2017-10-09T05:39:41.217Z,3.40
2017-10-09T05:42:09.132Z,4.07
2017-10-09T05:44:37.020Z,3.93
2017-10-09T05:47:05.809Z,3.63
2017-10-09T05:49:34.512Z,3.27
2017-10-09T05:52:02.352Z,3.50
2017-10-09T05:54:30.256Z,4.20
2017-10-09T05:56:58.174Z,4.60
2017-10-09T05:59:26.030Z,3.60
2017-10-09T06:01:54.140Z,3.70
2017-10-09T06:04:22.807Z,4.23
2017-10-09T06:06:51.402Z,4.60
2017-10-09T06:09:20.031Z,4.80
2017-10-09T06:11:47.876Z,5.17
2017-10-09T06:14:15.722Z,3.53
2017-10-09T06:16:44.307Z,4.03
2017-10-09T06:19:12.992Z,3.60
2017-10-09T06:21:41.685Z,3.77
2017-10-09T06:24:10.325Z,4.47
2017-10-09T06:26:39.749Z,4.97
2017-10-09T06:29:07.650Z,4.70
2017-10-09T06:31:35.541Z,5.33
2017-10-09T06:34:04.148Z,4.30
2017-10-09T06:36:32.068Z,4.20
2017-10-09T06:38:59.923Z,4.27
2017-10-09T06:41:28.540Z,4.33
2017-10-09T06:43:57.179Z,3.93
2017-10-09T06:46:25.897Z,4.50
2017-10-09T06:48:53.838Z,4.90
2017-10-09T06:51:22.454Z,5.17
2017-10-09T06:53:50.330Z,7.73
2017-10-09T06:56:18.208Z,6.07
2017-10-09T06:58:46.069Z,6.07
2017-10-09T07:01:13.940Z,6.23
2017-10-09T07:03:41.926Z,6.37
2017-10-09T07:06:09.793Z,6.00
2017-10-09T07:08:37.671Z,6.13
2017-10-09T07:11:05.546Z,6.17
2017-10-09T07:13:34.132Z,6.20
2017-10-09T07:16:02.050Z,5.70
2017-10-09T07:18:29.981Z,5.70
2017-10-09T07:20:57.841Z,7.17
2017-10-09T07:23:26.473Z,6.00
2017-10-09T07:25:54.358Z,7.20
2017-10-09T07:28:22.174Z,5.83
2017-10-09T07:30:50.294Z,6.40
2017-10-09T07:33:18.211Z,4.97
2017-10-09T07:35:46.850Z,5.53
2017-10-09T07:38:14.721Z,6.80
2017-10-09T07:40:42.635Z,5.40
2017-10-09T07:43:10.540Z,6.30
2017-10-09T07:45:38.441Z,5.13
2017-10-09T07:48:06.371Z,5.60
2017-10-09T07:50:34.260Z,5.63
2017-10-09T07:53:02.148Z,5.00
2017-10-09T07:55:30.900Z,4.90
2017-10-09T07:57:58.736Z,5.30
2017-10-09T08:00:26.664Z,4.70
2017-10-09T08:02:55.287Z,5.27
2017-10-09T08:05:23.327Z,4.57
2017-10-09T08:07:52.044Z,5.27
2017-10-09T08:10:20.310Z,4.40
2017-10-09T08:12:48.135Z,4.80
2017-10-09T08:15:16.008Z,4.40
2017-10-09T08:17:44.636Z,4.97
2017-10-09T08:20:12.653Z,5.23
2017-10-09T08:22:40.502Z,6.10
2017-10-09T08:25:08.341Z,4.70
2017-10-09T08:27:36.184Z,3.93
2017-10-09T08:30:04.792Z,6.03
2017-10-09T08:32:32.951Z,5.40
2017-10-09T08:35:00.876Z,4.53
2017-10-09T08:37:28.729Z,4.90
2017-10-09T08:39:56.531Z,4.77
2017-10-09T08:42:25.497Z,6.50
2017-10-09T08:44:53.371Z,6.10
2017-10-09T08:47:21.201Z,5.67
2017-10-09T08:49:49.189Z,4.73
2017-10-09T08:52:17.264Z,4.97
2017-10-09T08:54:45.275Z,5.20
2017-10-09T08:57:13.431Z,5.30
2017-10-09T08:59:42.108Z,5.30
2017-10-09T09:02:09.943Z,4.13
2017-10-09T09:04:37.808Z,3.83
2017-10-09T09:07:05.697Z,4.47
2017-10-09T09:09:33.537Z,4.20
2017-10-09T09:12:01.420Z,4.70
2017-10-09T09:14:29.251Z,4.00
2017-10-09T09:16:57.084Z,4.67
2017-10-09T09:19:25.746Z,3.70
2017-10-09T09:21:53.602Z,3.60
2017-10-09T09:24:21.463Z,4.70
2017-10-09T09:26:49.626Z,3.80
2017-10-09T09:29:18.729Z,3.90
2017-10-09T09:31:46.804Z,4.90
2017-10-09T09:34:14.612Z,4.23
2017-10-09T09:36:43.213Z,3.50
2017-10-09T09:39:11.020Z,4.03
2017-10-09T09:41:38.913Z,4.37
2017-10-09T09:44:07.700Z,4.10
2017-10-09T09:46:35.727Z,3.90
2017-10-09T09:49:03.553Z,3.80
2017-10-09T09:51:32.316Z,3.20
2017-10-09T09:54:01.048Z,3.73
2017-10-09T09:56:29.459Z,4.00
2017-10-09T09:58:57.292Z,3.80
2017-10-09T10:01:25.151Z,3.97
2017-10-09T10:03:53.017Z,3.60
2017-10-09T10:06:20.915Z,4.00
2017-10-09T10:08:48.918Z,4.60
2017-10-09T10:11:16.727Z,3.77
2017-10-09T10:13:44.577Z,4.10
2017-10-09T10:16:12.405Z,3.87
2017-10-09T10:18:40.252Z,3.90
2017-10-09T10:21:08.096Z,4.23
2017-10-09T10:23:36.748Z,4.90
2017-10-09T10:26:05.436Z,4.20
2017-10-09T10:28:34.139Z,3.40
2017-10-09T10:31:02.064Z,3.90
2017-10-09T10:33:29.975Z,3.47
2017-10-09T10:35:57.942Z,4.53
2017-10-09T10:38:26.540Z,4.23
2017-10-09T10:40:54.424Z,4.10
2017-10-09T10:43:22.392Z,4.10
2017-10-09T10:45:50.258Z,4.43
2017-10-09T10:48:18.245Z,3.10
2017-10-09T10:50:46.104Z,3.37
2017-10-09T10:53:13.927Z,4.17
2017-10-09T10:55:41.852Z,3.63
2017-10-09T10:58:09.750Z,4.30
2017-10-09T11:00:38.425Z,3.50
2017-10-09T11:03:07.119Z,4.27
2017-10-09T11:05:35.719Z,4.30
2017-10-09T11:08:03.560Z,3.47
2017-10-09T11:10:32.194Z,4.60
2017-10-09T11:13:00.092Z,4.17
2017-10-09T11:15:28.898Z,4.87
2017-10-09T11:17:57.577Z,4.13
2017-10-09T11:20:26.177Z,4.53
2017-10-09T11:22:54.831Z,3.47
2017-10-09T11:25:22.720Z,3.53
2017-10-09T11:27:50.545Z,3.10
2017-10-09T11:30:18.377Z,3.90
2017-10-09T11:32:46.204Z,3.77
2017-10-09T11:35:14.093Z,3.40
2017-10-09T11:37:43.128Z,3.50
2017-10-09T11:40:10.974Z,3.70
2017-10-09T11:42:38.991Z,3.03
2017-10-09T11:45:06.883Z,3.83
2017-10-09T11:47:35.456Z,3.60
2017-10-09T11:50:04.146Z,3.80
2017-10-09T11:52:32.767Z,4.13
2017-10-09T11:55:00.674Z,3.90
2017-10-09T11:57:28.646Z,3.60
2017-10-09T11:59:56.534Z,2.77
2017-10-09T12:02:25.177Z,3.77
2017-10-09T12:04:53.094Z,3.40
2017-10-09T12:07:21.771Z,4.37
2017-10-09T12:09:50.648Z,4.23
2017-10-09T12:12:18.598Z,4.30
2017-10-09T12:14:46.496Z,3.73
2017-10-09T12:17:15.146Z,3.10
2017-10-09T12:19:42.958Z,2.97
2017-10-09T12:22:11.547Z,3.10
2017-10-09T12:24:39.476Z,3.90
2017-10-09T12:27:07.400Z,3.67
2017-10-09T12:29:35.354Z,3.30
2017-10-09T12:32:04.097Z,4.10
2017-10-09T12:34:32.164Z,4.20
2017-10-09T12:37:00.044Z,4.00
2017-10-09T12:39:27.912Z,3.93
2017-10-09T12:41:55.730Z,3.07
2017-10-09T12:44:23.596Z,3.80
2017-10-09T12:46:51.417Z,3.77
2017-10-09T12:49:19.539Z,4.07
2017-10-09T12:51:47.417Z,3.60
2017-10-09T12:54:15.734Z,4.00
2017-10-09T12:56:44.396Z,3.10
2017-10-09T12:59:12.282Z,3.10
2017-10-09T13:01:40.167Z,3.57
2017-10-09T13:04:08.084Z,3.90
2017-10-09T13:06:36.203Z,3.60
2017-10-09T13:09:04.905Z,4.23
2017-10-09T13:11:33.043Z,4.13
2017-10-09T13:14:00.931Z,5.73
2017-10-09T13:16:29.651Z,5.17
2017-10-09T13:18:57.499Z,5.13
2017-10-09T13:21:25.349Z,3.63
2017-10-09T13:23:54.156Z,3.63
2017-10-09T13:26:22.028Z,4.30
2017-10-09T13:28:49.924Z,6.47
2017-10-09T13:31:17.744Z,3.80
2017-10-09T13:33:45.650Z,4.30
2017-10-09T13:36:13.629Z,4.10
2017-10-09T13:38:41.491Z,4.00
2017-10-09T13:41:09.316Z,4.40
2017-10-09T13:43:37.136Z,3.77
2017-10-09T13:46:04.971Z,4.20
2017-10-09T13:48:32.789Z,4.83
2017-10-09T13:51:01.467Z,4.67
2017-10-09T13:53:29.327Z,4.53
2017-10-09T13:55:57.228Z,4.10
2017-10-09T13:58:25.396Z,4.30
2017-10-09T14:00:53.337Z,4.50
2017-10-09T14:03:21.217Z,4.73
2017-10-09T14:05:49.872Z,5.53
2017-10-09T14:08:17.735Z,4.97
2017-10-09T14:10:46.387Z,4.23
2017-10-09T14:13:14.654Z,4.50
2017-10-09T14:15:43.404Z,3.87
2017-10-09T14:18:12.055Z,5.30
2017-10-09T14:20:40.098Z,4.37
2017-10-09T14:23:10.336Z,4.50
2017-10-09T14:25:41.363Z,4.40
2017-10-09T14:28:10.629Z,5.40
2017-10-09T14:30:39.299Z,4.03
2017-10-09T14:40:31.028Z,4.30
2017-10-09T14:42:58.938Z,4.33
2017-10-09T14:45:26.962Z,4.73
2017-10-09T14:47:54.777Z,3.57
2017-10-09T14:50:22.717Z,4.00
2017-10-09T14:52:50.630Z,4.20
2017-10-09T14:55:19.307Z,4.80
2017-10-09T14:57:47.928Z,4.13
2017-10-09T15:00:16.296Z,4.00
2017-10-09T15:02:44.466Z,5.50
2017-10-09T15:05:12.392Z,4.77
2017-10-09T15:07:40.318Z,4.40
2017-10-09T15:10:08.403Z,4.57
2017-10-09T15:12:36.268Z,3.70
2017-10-09T15:15:04.534Z,5.03
2017-10-09T15:17:32.603Z,4.30
2017-10-09T15:20:00.718Z,5.03
2017-10-09T15:22:28.876Z,4.00
2017-10-09T15:24:57.115Z,5.17
2017-10-09T15:27:24.969Z,4.33
2017-10-09T15:29:53.637Z,4.57
2017-10-09T15:32:22.224Z,4.20
2017-10-09T15:34:50.897Z,5.23
2017-10-09T15:37:18.728Z,5.23
2017-10-09T15:39:46.537Z,4.63
2017-10-09T15:42:15.236Z,4.13
2017-10-09T15:44:43.951Z,3.80
2017-10-09T15:47:11.872Z,4.33
2017-10-09T15:49:39.737Z,3.93
2017-10-09T15:52:07.660Z,4.00
2017-10-09T15:54:35.622Z,4.57
2017-10-09T15:57:03.704Z,3.90
2017-10-09T15:59:32.340Z,3.40
2017-10-09T16:02:00.966Z,4.37
2017-10-09T16:04:29.122Z,4.40
2017-10-09T16:06:56.936Z,5.20
2017-10-09T16:09:24.960Z,4.27
2017-10-09T16:11:52.787Z,4.20
2017-10-09T16:14:20.806Z,4.50
2017-10-09T16:16:48.687Z,4.63
2017-10-09T16:19:16.561Z,3.60
2017-10-09T16:21:44.378Z,3.83
2017-10-09T16:24:12.979Z,4.10
2017-10-09T16:26:42.290Z,4.23
2017-10-09T16:29:10.124Z,4.83
2017-10-09T16:31:38.984Z,3.23
2017-10-09T16:34:07.004Z,4.27
2017-10-09T16:36:34.850Z,3.40
2017-10-09T16:39:03.618Z,4.00
2017-10-09T16:41:31.634Z,3.70
2017-10-09T16:43:59.666Z,3.23
2017-10-09T16:46:28.282Z,3.70
2017-10-09T16:48:57.384Z,3.70
2017-10-09T16:51:25.232Z,4.17
2017-10-09T16:53:53.090Z,3.87
2017-10-09T16:56:21.703Z,2.70
2017-10-09T16:58:50.316Z,3.50
2017-10-09T17:01:18.152Z,3.10
2017-10-09T17:03:47.000Z,3.20
2017-10-09T17:06:15.750Z,3.30
2017-10-09T17:08:43.588Z,3.40
2017-10-09T17:11:11.858Z,3.67
2017-10-09T17:13:40.055Z,3.67
2017-10-09T17:16:07.941Z,4.47
2017-10-09T17:18:36.061Z,3.40
2017-10-09T17:21:03.934Z,3.57
2017-10-09T17:23:31.856Z,4.03
2017-10-09T17:25:59.761Z,4.77
2017-10-09T17:28:27.579Z,3.90
2017-10-09T17:30:55.429Z,4.30
2017-10-09T17:33:23.286Z,4.20
2017-10-09T17:35:51.209Z,3.90
2017-10-09T17:38:19.872Z,4.40
2017-10-09T17:40:47.740Z,3.63
2017-10-09T17:43:15.655Z,3.93
2017-10-09T17:45:43.476Z,4.50
2017-10-09T17:48:11.380Z,3.83
2017-10-09T17:50:39.220Z,3.23
2017-10-09T17:53:07.821Z,3.40
2017-10-09T17:55:36.403Z,3.80
2017-10-09T17:58:05.040Z,3.90
2017-10-09T18:00:32.996Z,4.17
2017-10-09T18:03:01.053Z,3.10
2017-10-09T18:05:28.976Z,3.57
2017-10-09T18:07:57.695Z,2.93
2017-10-09T18:10:25.507Z,2.70
2017-10-09T18:12:53.376Z,3.90
2017-10-09T18:15:21.381Z,3.07
2017-10-09T18:17:50.045Z,3.83
2017-10-09T18:20:17.907Z,4.47
2017-10-09T18:22:46.037Z,3.70
2017-10-09T18:25:13.928Z,3.73
2017-10-09T18:27:42.170Z,11.83
2017-10-09T18:30:09.999Z,22.90
2017-10-09T18:32:38.649Z,24.73
2017-10-09T18:35:06.573Z,27.80
2017-10-09T18:37:34.458Z,17.60
2017-10-09T18:40:03.046Z,12.83
2017-10-09T18:42:30.999Z,10.73
2017-10-09T18:44:58.983Z,9.70
2017-10-09T18:47:26.888Z,10.70
2017-10-09T18:49:55.840Z,8.33
2017-10-09T18:52:23.711Z,6.47
2017-10-09T18:54:51.707Z,6.70
2017-10-09T18:57:19.607Z,5.80
2017-10-09T18:59:48.416Z,4.90
2017-10-09T19:02:16.384Z,4.50
2017-10-09T19:04:44.264Z,4.87
2017-10-09T19:07:12.177Z,4.50
2017-10-09T19:09:40.989Z,4.20
2017-10-09T19:12:09.648Z,4.30
2017-10-09T19:14:37.547Z,4.83
2017-10-09T19:17:06.130Z,4.50
2017-10-09T19:19:34.732Z,4.37
2017-10-09T19:22:02.575Z,4.03
2017-10-09T19:24:31.237Z,4.30
2017-10-09T19:26:59.168Z,4.20
2017-10-09T19:29:27.063Z,4.33
2017-10-09T19:31:54.991Z,4.37
2017-10-09T19:34:22.929Z,5.13
2017-10-09T19:36:51.592Z,4.30
2017-10-09T19:39:19.441Z,4.00
2017-10-09T19:41:47.376Z,5.00
2017-10-09T19:44:15.261Z,5.43
2017-10-09T19:46:43.090Z,4.53
2017-10-09T19:49:10.927Z,3.83
2017-10-09T19:51:38.959Z,4.87
2017-10-09T19:54:06.960Z,4.07
2017-10-09T19:56:35.690Z,4.77
2017-10-09T19:59:03.672Z,5.87
2017-10-09T20:01:31.629Z,5.17
2017-10-09T20:03:59.689Z,4.50
2017-10-09T20:06:28.248Z,3.80
2017-10-09T20:08:56.071Z,4.20
2017-10-09T20:11:23.949Z,4.60
2017-10-09T20:13:51.783Z,5.13
2017-10-09T20:16:19.581Z,4.50
2017-10-09T20:18:47.534Z,5.73
2017-10-09T20:21:15.396Z,5.20
2017-10-09T20:23:43.496Z,5.50
2017-10-09T20:26:11.417Z,5.40
2017-10-09T20:28:39.222Z,5.97
2017-10-09T20:31:07.094Z,5.30
2017-10-09T20:33:35.048Z,5.30
2017-10-09T20:36:02.897Z,5.10
2017-10-09T20:38:30.731Z,7.30
2017-10-09T20:40:59.382Z,7.60
2017-10-09T20:43:27.159Z,5.10
2017-10-09T20:45:54.965Z,5.10
2017-10-09T20:48:22.755Z,5.93
2017-10-09T20:50:50.937Z,4.90
2017-10-09T20:53:18.816Z,5.73
2017-10-09T20:55:46.801Z,6.80
2017-10-09T20:58:14.601Z,5.00
2017-10-09T21:00:42.433Z,4.40
2017-10-09T21:03:10.251Z,4.53
2017-10-09T21:05:38.148Z,5.40
2017-10-09T21:08:06.067Z,5.00
2017-10-09T21:10:33.974Z,5.07
2017-10-09T21:13:01.938Z,4.80
2017-10-09T21:15:29.912Z,5.70
2017-10-09T21:17:57.728Z,5.10
2017-10-09T21:20:26.298Z,5.87
2017-10-09T21:22:54.088Z,6.60
2017-10-09T21:25:21.989Z,6.00
2017-10-09T21:27:50.020Z,5.40
2017-10-09T21:30:18.712Z,5.27
2017-10-09T21:32:46.660Z,4.70
2017-10-09T21:35:15.212Z,4.90
2017-10-09T21:37:43.083Z,5.27
2017-10-09T21:40:10.901Z,4.43
2017-10-09T21:42:38.746Z,4.53
2017-10-09T21:45:07.480Z,5.03
2017-10-09T21:47:35.272Z,3.80
2017-10-09T21:50:03.084Z,4.03
2017-10-09T21:52:30.996Z,4.47
2017-10-09T21:54:58.800Z,4.73
2017-10-09T21:57:26.724Z,5.17
2017-10-09T21:59:54.537Z,4.70
2017-10-09T22:02:22.417Z,4.70
2017-10-09T22:04:51.122Z,4.27
2017-10-09T22:07:19.722Z,5.07
2017-10-09T22:09:47.524Z,3.93
2017-10-09T22:12:16.136Z,4.47
2017-10-09T22:14:44.351Z,3.87
2017-10-09T22:17:12.172Z,3.73
2017-10-09T22:19:40.096Z,3.90
2017-10-09T22:22:08.760Z,3.93
2017-10-09T22:24:36.615Z,4.73
2017-10-09T22:27:04.468Z,4.40
2017-10-09T22:29:33.017Z,4.37
2017-10-09T22:32:01.736Z,3.30
2017-10-09T22:34:29.864Z,3.80
2017-10-09T22:36:58.540Z,3.85
2017-10-09T22:39:26.383Z,5.37
2017-10-09T22:41:54.260Z,4.20
2017-10-09T22:44:22.242Z,4.27
2017-10-09T22:46:50.855Z,5.00
2017-10-09T22:49:19.682Z,4.47
2017-10-09T22:51:47.823Z,4.00
2017-10-09T22:54:16.088Z,4.20
2017-10-09T22:56:43.968Z,4.43
2017-10-09T22:59:11.922Z,5.37
2017-10-09T23:01:39.752Z,4.30
2017-10-09T23:04:08.195Z,4.20
2017-10-09T23:06:36.099Z,4.13
2017-10-09T23:09:04.169Z,4.47
2017-10-09T23:11:32.004Z,4.53
2017-10-09T23:13:59.947Z,4.57
2017-10-09T23:16:27.797Z,4.83
2017-10-09T23:18:56.584Z,4.33
2017-10-09T23:21:25.248Z,4.57
2017-10-09T23:23:53.092Z,4.47
2017-10-09T23:26:21.005Z,5.13
2017-10-09T23:28:49.613Z,4.30
2017-10-09T23:31:17.483Z,5.63
2017-10-09T23:33:45.385Z,4.73
2017-10-09T23:36:13.244Z,5.00
2017-10-09T23:38:41.857Z,3.67
2017-10-09T23:41:10.533Z,4.20
2017-10-09T23:43:38.426Z,5.00
2017-10-09T23:46:07.016Z,5.60
2017-10-09T23:48:35.655Z,5.33
2017-10-09T23:51:03.609Z,5.77
2017-10-09T23:53:31.423Z,5.10
2017-10-09T23:56:00.488Z,5.10
2017-10-09T23:58:28.332Z,5.83
